sensor_id;sensor_type;location;lat;lon;timestamp;P1;durP1;ratioP1;P2;durP2;ratioP2
12650;SDS011;6390;49.400;8.670;2022-07-09T00:01:47;1.52;;;1.20;;
12650;SDS011;6390;49.400;8.670;2022-07-09T00:04:13;1.88;;;1.20;;
12650;SDS011;6390;49.400;8.670;2022-07-09T00:06:39;1.30;;;1.20;;
12650;SDS011;6390;49.400;8.670;2022-07-09T00:09:06;3.15;;;1.40;;
12650;SDS011;6390;49.400;8.670;2022-07-09T00:11:32;3.50;;;1.20;;
12650;SDS011;6390;49.400;8.670;2022-07-09T00:13:58;2.53;;;1.15;;
12650;SDS011;6390;49.400;8.670;2022-07-09T00:16:24;1.30;;;1.20;;
12650;SDS011;6390;49.400;8.670;2022-07-09T00:18:50;2.00;;;1.23;;
12650;SDS011;6390;49.400;8.670;2022-07-09T00:21:16;3.38;;;1.35;;
12650;SDS011;6390;49.400;8.670;2022-07-09T00:23:42;2.15;;;1.17;;
12650;SDS011;6390;49.400;8.670;2022-07-09T00:29:03;1.08;;;1.00;;
12650;SDS011;6390;49.400;8.670;2022-07-09T00:31:29;1.05;;;1.00;;
12650;SDS011;6390;49.400;8.670;2022-07-09T00:33:56;1.13;;;1.00;;
12650;SDS011;6390;49.400;8.670;2022-07-09T00:36:22;3.50;;;1.10;;
12650;SDS011;6390;49.400;8.670;2022-07-09T00:38:48;2.05;;;1.10;;
12650;SDS011;6390;49.400;8.670;2022-07-09T00:41:14;0.90;;;0.90;;
12650;SDS011;6390;49.400;8.670;2022-07-09T00:43:45;1.23;;;1.02;;
12650;SDS011;6390;49.400;8.670;2022-07-09T00:46:15;1.27;;;1.17;;
12650;SDS011;6390;49.400;8.670;2022-07-09T00:48:42;1.70;;;1.23;;
12650;SDS011;6390;49.400;8.670;2022-07-09T00:51:09;1.23;;;1.00;;
12650;SDS011;6390;49.400;8.670;2022-07-09T00:53:36;1.83;;;1.20;;
12650;SDS011;6390;49.400;8.670;2022-07-09T00:56:02;1.27;;;1.17;;
12650;SDS011;6390;49.400;8.670;2022-07-09T00:58:29;1.67;;;1.10;;
12650;SDS011;6390;49.400;8.670;2022-07-09T01:00:57;2.15;;;1.20;;
12650;SDS011;6390;49.400;8.670;2022-07-09T01:03:23;1.10;;;1.00;;
12650;SDS011;6390;49.400;8.670;2022-07-09T01:05:49;1.10;;;1.00;;
12650;SDS011;6390;49.400;8.670;2022-07-09T01:08:15;1.42;;;1.23;;
12650;SDS011;6390;49.400;8.670;2022-07-09T01:10:41;1.42;;;1.27;;
12650;SDS011;6390;49.400;8.670;2022-07-09T01:13:07;2.58;;;1.30;;
12650;SDS011;6390;49.400;8.670;2022-07-09T01:15:34;1.15;;;1.10;;
12650;SDS011;6390;49.400;8.670;2022-07-09T01:18:00;1.23;;;1.13;;
12650;SDS011;6390;49.400;8.670;2022-07-09T01:20:29;0.98;;;0.98;;
12650;SDS011;6390;49.400;8.670;2022-07-09T01:22:56;1.73;;;1.20;;
12650;SDS011;6390;49.400;8.670;2022-07-09T01:28:07;0.90;;;0.90;;
12650;SDS011;6390;49.400;8.670;2022-07-09T01:30:35;0.90;;;0.90;;
12650;SDS011;6390;49.400;8.670;2022-07-09T01:33:03;1.50;;;1.10;;
12650;SDS011;6390;49.400;8.670;2022-07-09T01:35:29;1.88;;;1.27;;
12650;SDS011;6390;49.400;8.670;2022-07-09T01:37:56;1.35;;;1.17;;
12650;SDS011;6390;49.400;8.670;2022-07-09T01:40:22;1.40;;;1.10;;
12650;SDS011;6390;49.400;8.670;2022-07-09T01:42:49;1.27;;;1.17;;
12650;SDS011;6390;49.400;8.670;2022-07-09T01:45:15;1.15;;;1.05;;
12650;SDS011;6390;49.400;8.670;2022-07-09T01:47:42;1.08;;;1.00;;
12650;SDS011;6390;49.400;8.670;2022-07-09T01:50:09;1.35;;;1.20;;
12650;SDS011;6390;49.400;8.670;2022-07-09T01:52:36;3.15;;;1.25;;
12650;SDS011;6390;49.400;8.670;2022-07-09T01:55:02;1.35;;;1.20;;
12650;SDS011;6390;49.400;8.670;2022-07-09T01:57:29;1.48;;;1.10;;
12650;SDS011;6390;49.400;8.670;2022-07-09T01:59:55;1.58;;;1.10;;
12650;SDS011;6390;49.400;8.670;2022-07-09T02:02:21;1.08;;;1.00;;
12650;SDS011;6390;49.400;8.670;2022-07-09T02:04:47;1.20;;;1.10;;
12650;SDS011;6390;49.400;8.670;2022-07-09T02:07:13;1.42;;;1.10;;
12650;SDS011;6390;49.400;8.670;2022-07-09T02:09:40;1.20;;;1.10;;
12650;SDS011;6390;49.400;8.670;2022-07-09T02:12:06;1.50;;;1.30;;
12650;SDS011;6390;49.400;8.670;2022-07-09T02:14:33;1.10;;;1.00;;
12650;SDS011;6390;49.400;8.670;2022-07-09T02:16:59;1.20;;;1.10;;
12650;SDS011;6390;49.400;8.670;2022-07-09T02:19:26;1.40;;;1.10;;
12650;SDS011;6390;49.400;8.670;2022-07-09T02:21:52;1.30;;;1.20;;
12650;SDS011;6390;49.400;8.670;2022-07-09T02:24:18;1.75;;;1.33;;
12650;SDS011;6390;49.400;8.670;2022-07-09T02:26:45;1.15;;;0.93;;
12650;SDS011;6390;49.400;8.670;2022-07-09T02:29:11;1.20;;;1.10;;
12650;SDS011;6390;49.400;8.670;2022-07-09T02:31:37;1.42;;;1.30;;
12650;SDS011;6390;49.400;8.670;2022-07-09T02:34:03;1.25;;;1.00;;
12650;SDS011;6390;49.400;8.670;2022-07-09T02:36:29;1.45;;;1.08;;
12650;SDS011;6390;49.400;8.670;2022-07-09T02:38:55;1.20;;;1.10;;
12650;SDS011;6390;49.400;8.670;2022-07-09T02:41:21;1.20;;;1.10;;
12650;SDS011;6390;49.400;8.670;2022-07-09T02:43:47;2.05;;;1.17;;
12650;SDS011;6390;49.400;8.670;2022-07-09T02:46:13;1.20;;;1.10;;
12650;SDS011;6390;49.400;8.670;2022-07-09T02:48:40;1.27;;;1.17;;
12650;SDS011;6390;49.400;8.670;2022-07-09T02:51:06;2.67;;;1.20;;
12650;SDS011;6390;49.400;8.670;2022-07-09T02:53:32;2.97;;;1.20;;
12650;SDS011;6390;49.400;8.670;2022-07-09T02:55:58;1.25;;;1.15;;
12650;SDS011;6390;49.400;8.670;2022-07-09T02:58:24;1.17;;;1.08;;
12650;SDS011;6390;49.400;8.670;2022-07-09T03:00:50;1.02;;;0.93;;
12650;SDS011;6390;49.400;8.670;2022-07-09T03:03:16;2.63;;;1.30;;
12650;SDS011;6390;49.400;8.670;2022-07-09T03:05:43;1.25;;;1.13;;
12650;SDS011;6390;49.400;8.670;2022-07-09T03:08:09;1.20;;;1.10;;
12650;SDS011;6390;49.400;8.670;2022-07-09T03:10:35;1.92;;;1.17;;
12650;SDS011;6390;49.400;8.670;2022-07-09T03:13:01;1.48;;;1.38;;
12650;SDS011;6390;49.400;8.670;2022-07-09T03:15:27;1.27;;;1.17;;
12650;SDS011;6390;49.400;8.670;2022-07-09T03:17:53;1.27;;;1.17;;
12650;SDS011;6390;49.400;8.670;2022-07-09T03:20:19;1.67;;;1.27;;
12650;SDS011;6390;49.400;8.670;2022-07-09T03:22:45;2.35;;;1.20;;
12650;SDS011;6390;49.400;8.670;2022-07-09T03:25:11;1.63;;;1.40;;
12650;SDS011;6390;49.400;8.670;2022-07-09T03:27:38;1.45;;;1.10;;
12650;SDS011;6390;49.400;8.670;2022-07-09T03:30:04;1.30;;;1.20;;
12650;SDS011;6390;49.400;8.670;2022-07-09T03:32:31;1.75;;;1.40;;
12650;SDS011;6390;49.400;8.670;2022-07-09T03:34:57;1.65;;;1.25;;
12650;SDS011;6390;49.400;8.670;2022-07-09T03:37:23;1.48;;;1.38;;
12650;SDS011;6390;49.400;8.670;2022-07-09T03:39:49;1.23;;;1.13;;
12650;SDS011;6390;49.400;8.670;2022-07-09T03:42:16;1.23;;;1.13;;
12650;SDS011;6390;49.400;8.670;2022-07-09T03:44:42;1.83;;;1.30;;
12650;SDS011;6390;49.400;8.670;2022-07-09T03:47:08;1.63;;;1.38;;
12650;SDS011;6390;49.400;8.670;2022-07-09T03:49:34;1.90;;;1.55;;
12650;SDS011;6390;49.400;8.670;2022-07-09T03:52:00;4.75;;;4.25;;
12650;SDS011;6390;49.400;8.670;2022-07-09T03:54:26;4.22;;;3.70;;
12650;SDS011;6390;49.400;8.670;2022-07-09T03:56:52;3.65;;;2.20;;
12650;SDS011;6390;49.400;8.670;2022-07-09T03:59:19;4.18;;;1.88;;
12650;SDS011;6390;49.400;8.670;2022-07-09T04:01:45;1.58;;;1.35;;
12650;SDS011;6390;49.400;8.670;2022-07-09T04:04:11;2.00;;;1.42;;
12650;SDS011;6390;49.400;8.670;2022-07-09T04:06:37;2.30;;;1.48;;
12650;SDS011;6390;49.400;8.670;2022-07-09T04:09:03;1.17;;;1.08;;
12650;SDS011;6390;49.400;8.670;2022-07-09T04:11:30;2.40;;;1.30;;
12650;SDS011;6390;49.400;8.670;2022-07-09T04:13:58;2.47;;;1.30;;
12650;SDS011;6390;49.400;8.670;2022-07-09T04:16:25;1.88;;;1.40;;
12650;SDS011;6390;49.400;8.670;2022-07-09T04:18:51;1.88;;;1.30;;
12650;SDS011;6390;49.400;8.670;2022-07-09T04:21:18;2.28;;;1.38;;
12650;SDS011;6390;49.400;8.670;2022-07-09T04:23:47;1.75;;;1.50;;
12650;SDS011;6390;49.400;8.670;2022-07-09T04:26:16;1.40;;;1.27;;
12650;SDS011;6390;49.400;8.670;2022-07-09T04:28:43;1.40;;;1.30;;
12650;SDS011;6390;49.400;8.670;2022-07-09T04:31:10;2.40;;;1.40;;
12650;SDS011;6390;49.400;8.670;2022-07-09T04:33:37;1.30;;;1.10;;
12650;SDS011;6390;49.400;8.670;2022-07-09T04:36:04;1.25;;;1.15;;
12650;SDS011;6390;49.400;8.670;2022-07-09T04:38:30;1.42;;;1.35;;
12650;SDS011;6390;49.400;8.670;2022-07-09T04:40:56;2.08;;;1.50;;
12650;SDS011;6390;49.400;8.670;2022-07-09T04:43:23;1.40;;;1.30;;
12650;SDS011;6390;49.400;8.670;2022-07-09T04:45:49;1.33;;;1.23;;
12650;SDS011;6390;49.400;8.670;2022-07-09T04:48:15;1.27;;;1.17;;
12650;SDS011;6390;49.400;8.670;2022-07-09T04:50:41;1.92;;;1.38;;
12650;SDS011;6390;49.400;8.670;2022-07-09T04:53:07;2.08;;;1.17;;
12650;SDS011;6390;49.400;8.670;2022-07-09T04:55:34;1.45;;;1.35;;
12650;SDS011;6390;49.400;8.670;2022-07-09T04:58:00;2.47;;;1.35;;
12650;SDS011;6390;49.400;8.670;2022-07-09T05:00:26;1.60;;;1.50;;
12650;SDS011;6390;49.400;8.670;2022-07-09T05:02:52;2.95;;;1.45;;
12650;SDS011;6390;49.400;8.670;2022-07-09T05:05:18;2.95;;;1.45;;
12650;SDS011;6390;49.400;8.670;2022-07-09T05:07:48;1.95;;;1.40;;
12650;SDS011;6390;49.400;8.670;2022-07-09T05:10:14;1.35;;;1.20;;
12650;SDS011;6390;49.400;8.670;2022-07-09T05:12:40;1.70;;;1.60;;
12650;SDS011;6390;49.400;8.670;2022-07-09T05:15:07;1.83;;;1.50;;
12650;SDS011;6390;49.400;8.670;2022-07-09T05:17:35;2.08;;;1.40;;
12650;SDS011;6390;49.400;8.670;2022-07-09T05:20:02;2.90;;;1.65;;
12650;SDS011;6390;49.400;8.670;2022-07-09T05:22:32;1.88;;;1.48;;
12650;SDS011;6390;49.400;8.670;2022-07-09T05:25:00;1.65;;;1.55;;
12650;SDS011;6390;49.400;8.670;2022-07-09T05:27:27;1.90;;;1.80;;
12650;SDS011;6390;49.400;8.670;2022-07-09T05:29:53;1.60;;;1.40;;
12650;SDS011;6390;49.400;8.670;2022-07-09T05:32:19;2.40;;;1.70;;
12650;SDS011;6390;49.400;8.670;2022-07-09T05:34:46;1.83;;;1.40;;
12650;SDS011;6390;49.400;8.670;2022-07-09T05:37:12;2.20;;;1.70;;
12650;SDS011;6390;49.400;8.670;2022-07-09T05:39:38;2.25;;;1.30;;
12650;SDS011;6390;49.400;8.670;2022-07-09T05:42:04;1.50;;;1.40;;
12650;SDS011;6390;49.400;8.670;2022-07-09T05:44:31;2.45;;;1.40;;
12650;SDS011;6390;49.400;8.670;2022-07-09T05:46:57;2.17;;;1.60;;
12650;SDS011;6390;49.400;8.670;2022-07-09T05:49:24;1.73;;;1.42;;
12650;SDS011;6390;49.400;8.670;2022-07-09T05:51:50;2.78;;;2.10;;
12650;SDS011;6390;49.400;8.670;2022-07-09T05:54:16;3.53;;;1.83;;
12650;SDS011;6390;49.400;8.670;2022-07-09T05:56:42;1.77;;;1.67;;
12650;SDS011;6390;49.400;8.670;2022-07-09T05:59:09;2.42;;;1.67;;
12650;SDS011;6390;49.400;8.670;2022-07-09T06:01:35;2.03;;;1.70;;
12650;SDS011;6390;49.400;8.670;2022-07-09T06:04:05;1.65;;;1.52;;
12650;SDS011;6390;49.400;8.670;2022-07-09T06:06:32;2.50;;;1.52;;
12650;SDS011;6390;49.400;8.670;2022-07-09T06:08:59;3.80;;;1.67;;
12650;SDS011;6390;49.400;8.670;2022-07-09T06:11:26;1.95;;;1.67;;
12650;SDS011;6390;49.400;8.670;2022-07-09T06:13:52;4.00;;;1.83;;
12650;SDS011;6390;49.400;8.670;2022-07-09T06:16:18;1.75;;;1.65;;
12650;SDS011;6390;49.400;8.670;2022-07-09T06:18:44;3.25;;;1.83;;
12650;SDS011;6390;49.400;8.670;2022-07-09T06:21:10;1.65;;;1.45;;
12650;SDS011;6390;49.400;8.670;2022-07-09T06:23:36;2.13;;;1.88;;
12650;SDS011;6390;49.400;8.670;2022-07-09T06:26:03;1.88;;;1.75;;
12650;SDS011;6390;49.400;8.670;2022-07-09T06:28:29;2.65;;;1.80;;
12650;SDS011;6390;49.400;8.670;2022-07-09T06:30:56;2.95;;;1.85;;
12650;SDS011;6390;49.400;8.670;2022-07-09T06:33:22;1.85;;;1.67;;
12650;SDS011;6390;49.400;8.670;2022-07-09T06:35:48;3.03;;;1.73;;
12650;SDS011;6390;49.400;8.670;2022-07-09T06:38:14;2.72;;;1.73;;
12650;SDS011;6390;49.400;8.670;2022-07-09T06:40:40;2.70;;;1.67;;
12650;SDS011;6390;49.400;8.670;2022-07-09T06:43:06;2.75;;;1.70;;
12650;SDS011;6390;49.400;8.670;2022-07-09T06:45:34;2.20;;;1.73;;
12650;SDS011;6390;49.400;8.670;2022-07-09T06:48:01;2.00;;;1.50;;
12650;SDS011;6390;49.400;8.670;2022-07-09T06:50:27;2.15;;;1.70;;
12650;SDS011;6390;49.400;8.670;2022-07-09T06:52:53;3.20;;;1.75;;
12650;SDS011;6390;49.400;8.670;2022-07-09T06:55:19;1.88;;;1.63;;
12650;SDS011;6390;49.400;8.670;2022-07-09T06:57:46;2.75;;;1.83;;
12650;SDS011;6390;49.400;8.670;2022-07-09T07:00:12;3.00;;;1.70;;
12650;SDS011;6390;49.400;8.670;2022-07-09T07:02:39;5.13;;;1.65;;
12650;SDS011;6390;49.400;8.670;2022-07-09T07:05:05;1.55;;;1.45;;
12650;SDS011;6390;49.400;8.670;2022-07-09T07:07:31;2.72;;;1.60;;
12650;SDS011;6390;49.400;8.670;2022-07-09T07:09:58;1.65;;;1.55;;
12650;SDS011;6390;49.400;8.670;2022-07-09T07:12:24;4.50;;;1.70;;
12650;SDS011;6390;49.400;8.670;2022-07-09T07:14:50;1.58;;;1.35;;
12650;SDS011;6390;49.400;8.670;2022-07-09T07:17:16;1.63;;;1.27;;
12650;SDS011;6390;49.400;8.670;2022-07-09T07:19:42;2.03;;;1.63;;
12650;SDS011;6390;49.400;8.670;2022-07-09T07:22:08;1.63;;;1.52;;
12650;SDS011;6390;49.400;8.670;2022-07-09T07:24:34;3.50;;;1.90;;
12650;SDS011;6390;49.400;8.670;2022-07-09T07:27:00;2.00;;;1.77;;
12650;SDS011;6390;49.400;8.670;2022-07-09T07:29:26;3.08;;;1.70;;
12650;SDS011;6390;49.400;8.670;2022-07-09T07:31:53;2.85;;;1.60;;
12650;SDS011;6390;49.400;8.670;2022-07-09T07:34:19;2.53;;;1.85;;
12650;SDS011;6390;49.400;8.670;2022-07-09T07:36:47;2.00;;;1.65;;
12650;SDS011;6390;49.400;8.670;2022-07-09T07:39:15;2.38;;;1.75;;
12650;SDS011;6390;49.400;8.670;2022-07-09T07:41:41;2.00;;;1.80;;
12650;SDS011;6390;49.400;8.670;2022-07-09T07:44:07;1.88;;;1.67;;
12650;SDS011;6390;49.400;8.670;2022-07-09T07:46:33;2.17;;;1.90;;
12650;SDS011;6390;49.400;8.670;2022-07-09T07:48:59;2.60;;;2.10;;
12650;SDS011;6390;49.400;8.670;2022-07-09T07:51:25;3.38;;;2.13;;
12650;SDS011;6390;49.400;8.670;2022-07-09T07:53:51;2.50;;;2.30;;
12650;SDS011;6390;49.400;8.670;2022-07-09T07:56:17;3.40;;;2.17;;
12650;SDS011;6390;49.400;8.670;2022-07-09T07:58:43;3.13;;;1.88;;
12650;SDS011;6390;49.400;8.670;2022-07-09T08:01:10;3.83;;;1.92;;
12650;SDS011;6390;49.400;8.670;2022-07-09T08:03:36;3.63;;;2.05;;
12650;SDS011;6390;49.400;8.670;2022-07-09T08:06:02;2.58;;;1.85;;
12650;SDS011;6390;49.400;8.670;2022-07-09T08:08:28;2.10;;;1.73;;
12650;SDS011;6390;49.400;8.670;2022-07-09T08:10:54;1.85;;;1.60;;
12650;SDS011;6390;49.400;8.670;2022-07-09T08:13:20;3.13;;;1.60;;
12650;SDS011;6390;49.400;8.670;2022-07-09T08:15:46;1.50;;;1.40;;
12650;SDS011;6390;49.400;8.670;2022-07-09T08:18:12;1.52;;;1.20;;
12650;SDS011;6390;49.400;8.670;2022-07-09T08:20:40;3.25;;;1.40;;
12650;SDS011;6390;49.400;8.670;2022-07-09T08:23:06;1.33;;;1.20;;
12650;SDS011;6390;49.400;8.670;2022-07-09T08:25:33;4.82;;;1.75;;
12650;SDS011;6390;49.400;8.670;2022-07-09T08:28:00;3.42;;;1.52;;
12650;SDS011;6390;49.400;8.670;2022-07-09T08:30:27;2.95;;;1.20;;
12650;SDS011;6390;49.400;8.670;2022-07-09T08:32:53;5.60;;;1.70;;
12650;SDS011;6390;49.400;8.670;2022-07-09T08:35:19;2.45;;;1.23;;
12650;SDS011;6390;49.400;8.670;2022-07-09T08:37:45;1.67;;;1.10;;
12650;SDS011;6390;49.400;8.670;2022-07-09T08:40:11;1.35;;;1.25;;
12650;SDS011;6390;49.400;8.670;2022-07-09T08:42:37;2.40;;;1.33;;
12650;SDS011;6390;49.400;8.670;2022-07-09T08:45:05;1.45;;;1.23;;
12650;SDS011;6390;49.400;8.670;2022-07-09T08:47:36;1.30;;;1.10;;
12650;SDS011;6390;49.400;8.670;2022-07-09T08:50:02;1.88;;;1.02;;
12650;SDS011;6390;49.400;8.670;2022-07-09T08:52:29;1.52;;;0.98;;
12650;SDS011;6390;49.400;8.670;2022-07-09T08:54:55;1.45;;;0.82;;
12650;SDS011;6390;49.400;8.670;2022-07-09T08:57:22;1.65;;;1.30;;
12650;SDS011;6390;49.400;8.670;2022-07-09T08:59:48;2.00;;;1.05;;
12650;SDS011;6390;49.400;8.670;2022-07-09T09:02:14;1.52;;;1.00;;
12650;SDS011;6390;49.400;8.670;2022-07-09T09:04:40;1.17;;;0.88;;
12650;SDS011;6390;49.400;8.670;2022-07-09T09:07:13;1.40;;;0.90;;
12650;SDS011;6390;49.400;8.670;2022-07-09T09:09:40;0.93;;;0.90;;
12650;SDS011;6390;49.400;8.670;2022-07-09T09:12:07;3.33;;;0.90;;
12650;SDS011;6390;49.400;8.670;2022-07-09T09:14:33;0.90;;;0.90;;
12650;SDS011;6390;49.400;8.670;2022-07-09T09:17:06;1.50;;;0.98;;
12650;SDS011;6390;49.400;8.670;2022-07-09T09:19:37;2.05;;;1.00;;
12650;SDS011;6390;49.400;8.670;2022-07-09T09:22:04;1.60;;;0.90;;
12650;SDS011;6390;49.400;8.670;2022-07-09T09:24:31;1.08;;;0.88;;
12650;SDS011;6390;49.400;8.670;2022-07-09T09:27:01;0.95;;;0.80;;
12650;SDS011;6390;49.400;8.670;2022-07-09T09:29:27;2.70;;;1.00;;
12650;SDS011;6390;49.400;8.670;2022-07-09T09:31:54;1.77;;;1.10;;
12650;SDS011;6390;49.400;8.670;2022-07-09T09:34:21;1.65;;;0.90;;
12650;SDS011;6390;49.400;8.670;2022-07-09T09:36:48;1.83;;;1.23;;
12650;SDS011;6390;49.400;8.670;2022-07-09T09:39:20;2.72;;;0.98;;
12650;SDS011;6390;49.400;8.670;2022-07-09T09:41:55;1.15;;;1.00;;
12650;SDS011;6390;49.400;8.670;2022-07-09T09:44:25;1.40;;;1.20;;
12650;SDS011;6390;49.400;8.670;2022-07-09T09:46:56;1.90;;;1.05;;
12650;SDS011;6390;49.400;8.670;2022-07-09T09:49:23;1.95;;;1.20;;
12650;SDS011;6390;49.400;8.670;2022-07-09T09:52:24;1.55;;;1.10;;
12650;SDS011;6390;49.400;8.670;2022-07-09T09:54:43;2.45;;;1.00;;
12650;SDS011;6390;49.400;8.670;2022-07-09T09:57:12;2.78;;;1.25;;
12650;SDS011;6390;49.400;8.670;2022-07-09T09:59:39;3.08;;;1.20;;
12650;SDS011;6390;49.400;8.670;2022-07-09T10:02:07;1.17;;;0.98;;
12650;SDS011;6390;49.400;8.670;2022-07-09T10:04:38;1.35;;;0.88;;
12650;SDS011;6390;49.400;8.670;2022-07-09T10:07:07;1.40;;;1.05;;
12650;SDS011;6390;49.400;8.670;2022-07-09T10:09:41;1.75;;;1.05;;
12650;SDS011;6390;49.400;8.670;2022-07-09T10:12:24;4.07;;;1.52;;
12650;SDS011;6390;49.400;8.670;2022-07-09T10:14:59;0.90;;;0.90;;
12650;SDS011;6390;49.400;8.670;2022-07-09T10:17:25;5.10;;;1.17;;
12650;SDS011;6390;49.400;8.670;2022-07-09T10:25:06;1.40;;;1.00;;
12650;SDS011;6390;49.400;8.670;2022-07-09T10:27:47;1.23;;;0.90;;
12650;SDS011;6390;49.400;8.670;2022-07-09T10:33:09;2.60;;;0.93;;
12650;SDS011;6390;49.400;8.670;2022-07-09T10:35:42;1.55;;;0.85;;
12650;SDS011;6390;49.400;8.670;2022-07-09T10:38:14;1.23;;;1.00;;
12650;SDS011;6390;49.400;8.670;2022-07-09T10:40:44;1.42;;;1.00;;
12650;SDS011;6390;49.400;8.670;2022-07-09T10:43:12;0.90;;;0.90;;
12650;SDS011;6390;49.400;8.670;2022-07-09T10:45:42;1.65;;;1.10;;
12650;SDS011;6390;49.400;8.670;2022-07-09T10:48:10;0.80;;;0.80;;
12650;SDS011;6390;49.400;8.670;2022-07-09T10:50:39;1.73;;;1.05;;
12650;SDS011;6390;49.400;8.670;2022-07-09T10:53:08;2.42;;;0.90;;
12650;SDS011;6390;49.400;8.670;2022-07-09T10:55:35;1.95;;;0.90;;
12650;SDS011;6390;49.400;8.670;2022-07-09T10:58:02;0.93;;;0.68;;
12650;SDS011;6390;49.400;8.670;2022-07-09T11:00:32;1.45;;;0.90;;
12650;SDS011;6390;49.400;8.670;2022-07-09T11:03:00;1.30;;;0.88;;
12650;SDS011;6390;49.400;8.670;2022-07-09T11:05:28;1.20;;;0.80;;
12650;SDS011;6390;49.400;8.670;2022-07-09T11:08:01;2.00;;;0.75;;
12650;SDS011;6390;49.400;8.670;2022-07-09T11:10:33;1.38;;;0.75;;
12650;SDS011;6390;49.400;8.670;2022-07-09T11:13:02;0.98;;;0.80;;
12650;SDS011;6390;49.400;8.670;2022-07-09T11:15:31;1.00;;;0.82;;
12650;SDS011;6390;49.400;8.670;2022-07-09T11:18:01;1.50;;;1.00;;
12650;SDS011;6390;49.400;8.670;2022-07-09T11:23:11;1.35;;;0.80;;
12650;SDS011;6390;49.400;8.670;2022-07-09T11:25:38;1.48;;;0.90;;
12650;SDS011;6390;49.400;8.670;2022-07-09T11:28:04;1.42;;;0.93;;
12650;SDS011;6390;49.400;8.670;2022-07-09T11:30:31;1.50;;;0.90;;
12650;SDS011;6390;49.400;8.670;2022-07-09T11:32:58;2.08;;;0.90;;
12650;SDS011;6390;49.400;8.670;2022-07-09T11:37:59;1.67;;;1.00;;
12650;SDS011;6390;49.400;8.670;2022-07-09T11:40:28;1.65;;;0.90;;
12650;SDS011;6390;49.400;8.670;2022-07-09T11:42:55;1.10;;;0.90;;
12650;SDS011;6390;49.400;8.670;2022-07-09T11:45:28;0.80;;;0.80;;
12650;SDS011;6390;49.400;8.670;2022-07-09T11:48:02;0.90;;;0.90;;
12650;SDS011;6390;49.400;8.670;2022-07-09T11:50:30;1.95;;;1.00;;
12650;SDS011;6390;49.400;8.670;2022-07-09T11:52:56;1.27;;;0.95;;
12650;SDS011;6390;49.400;8.670;2022-07-09T11:55:29;1.65;;;0.80;;
12650;SDS011;6390;49.400;8.670;2022-07-09T11:57:57;1.58;;;0.75;;
12650;SDS011;6390;49.400;8.670;2022-07-09T12:02:58;2.53;;;1.10;;
12650;SDS011;6390;49.400;8.670;2022-07-09T12:05:29;2.50;;;0.95;;
12650;SDS011;6390;49.400;8.670;2022-07-09T12:07:57;1.10;;;0.88;;
12650;SDS011;6390;49.400;8.670;2022-07-09T12:10:30;1.55;;;0.82;;
12650;SDS011;6390;49.400;8.670;2022-07-09T12:12:59;1.25;;;1.00;;
12650;SDS011;6390;49.400;8.670;2022-07-09T12:15:26;2.25;;;0.98;;
12650;SDS011;6390;49.400;8.670;2022-07-09T12:17:53;2.22;;;1.05;;
12650;SDS011;6390;49.400;8.670;2022-07-09T12:20:22;1.30;;;0.90;;
12650;SDS011;6390;49.400;8.670;2022-07-09T12:22:50;0.88;;;0.77;;
12650;SDS011;6390;49.400;8.670;2022-07-09T12:25:17;1.85;;;0.88;;
12650;SDS011;6390;49.400;8.670;2022-07-09T12:27:44;0.75;;;0.65;;
12650;SDS011;6390;49.400;8.670;2022-07-09T12:30:12;0.73;;;0.70;;
12650;SDS011;6390;49.400;8.670;2022-07-09T12:32:39;1.33;;;1.00;;
12650;SDS011;6390;49.400;8.670;2022-07-09T12:35:06;1.10;;;1.00;;
12650;SDS011;6390;49.400;8.670;2022-07-09T12:37:33;1.08;;;0.90;;
12650;SDS011;6390;49.400;8.670;2022-07-09T12:39:59;0.93;;;0.90;;
12650;SDS011;6390;49.400;8.670;2022-07-09T12:42:26;0.70;;;0.70;;
12650;SDS011;6390;49.400;8.670;2022-07-09T12:44:52;0.95;;;0.85;;
12650;SDS011;6390;49.400;8.670;2022-07-09T12:47:18;0.85;;;0.85;;
12650;SDS011;6390;49.400;8.670;2022-07-09T12:49:44;0.70;;;0.70;;
12650;SDS011;6390;49.400;8.670;2022-07-09T12:52:10;0.80;;;0.80;;
12650;SDS011;6390;49.400;8.670;2022-07-09T12:54:36;1.10;;;0.68;;
12650;SDS011;6390;49.400;8.670;2022-07-09T12:57:03;2.35;;;0.80;;
12650;SDS011;6390;49.400;8.670;2022-07-09T12:59:30;1.38;;;0.60;;
12650;SDS011;6390;49.400;8.670;2022-07-09T13:01:56;0.82;;;0.73;;
12650;SDS011;6390;49.400;8.670;2022-07-09T13:04:23;0.80;;;0.80;;
12650;SDS011;6390;49.400;8.670;2022-07-09T13:06:49;1.45;;;0.70;;
12650;SDS011;6390;49.400;8.670;2022-07-09T13:09:15;1.27;;;0.90;;
12650;SDS011;6390;49.400;8.670;2022-07-09T13:11:41;2.42;;;0.82;;
12650;SDS011;6390;49.400;8.670;2022-07-09T13:14:07;1.25;;;0.70;;
12650;SDS011;6390;49.400;8.670;2022-07-09T13:16:36;0.60;;;0.60;;
12650;SDS011;6390;49.400;8.670;2022-07-09T13:19:03;0.73;;;0.73;;
12650;SDS011;6390;49.400;8.670;2022-07-09T13:21:29;0.80;;;0.80;;
12650;SDS011;6390;49.400;8.670;2022-07-09T13:23:56;0.70;;;0.70;;
12650;SDS011;6390;49.400;8.670;2022-07-09T13:26:22;0.60;;;0.60;;
12650;SDS011;6390;49.400;8.670;2022-07-09T13:28:48;0.70;;;0.60;;
12650;SDS011;6390;49.400;8.670;2022-07-09T13:31:14;1.55;;;0.60;;
12650;SDS011;6390;49.400;8.670;2022-07-09T13:33:41;0.77;;;0.77;;
12650;SDS011;6390;49.400;8.670;2022-07-09T13:36:07;0.65;;;0.65;;
12650;SDS011;6390;49.400;8.670;2022-07-09T13:38:33;1.00;;;0.60;;
12650;SDS011;6390;49.400;8.670;2022-07-09T13:41:00;1.10;;;0.68;;
12650;SDS011;6390;49.400;8.670;2022-07-09T13:43:26;0.70;;;0.68;;
12650;SDS011;6390;49.400;8.670;2022-07-09T13:45:57;1.05;;;0.95;;
12650;SDS011;6390;49.400;8.670;2022-07-09T13:48:24;1.80;;;1.20;;
12650;SDS011;6390;49.400;8.670;2022-07-09T13:50:52;1.40;;;1.20;;
12650;SDS011;6390;49.400;8.670;2022-07-09T13:53:18;1.23;;;0.90;;
12650;SDS011;6390;49.400;8.670;2022-07-09T13:55:45;0.80;;;0.77;;
12650;SDS011;6390;49.400;8.670;2022-07-09T13:58:11;0.80;;;0.80;;
12650;SDS011;6390;49.400;8.670;2022-07-09T14:00:38;1.10;;;0.85;;
12650;SDS011;6390;49.400;8.670;2022-07-09T14:03:04;0.50;;;0.50;;
12650;SDS011;6390;49.400;8.670;2022-07-09T14:05:31;3.60;;;0.68;;
12650;SDS011;6390;49.400;8.670;2022-07-09T14:07:57;0.82;;;0.70;;
12650;SDS011;6390;49.400;8.670;2022-07-09T14:10:23;0.70;;;0.70;;
12650;SDS011;6390;49.400;8.670;2022-07-09T14:12:49;1.75;;;0.95;;
12650;SDS011;6390;49.400;8.670;2022-07-09T14:15:16;0.80;;;0.80;;
12650;SDS011;6390;49.400;8.670;2022-07-09T14:17:42;1.60;;;0.70;;
12650;SDS011;6390;49.400;8.670;2022-07-09T14:20:09;0.60;;;0.60;;
12650;SDS011;6390;49.400;8.670;2022-07-09T14:22:36;1.00;;;0.80;;
12650;SDS011;6390;49.400;8.670;2022-07-09T14:25:03;0.93;;;0.65;;
12650;SDS011;6390;49.400;8.670;2022-07-09T14:27:30;0.98;;;0.80;;
12650;SDS011;6390;49.400;8.670;2022-07-09T14:29:56;0.93;;;0.80;;
12650;SDS011;6390;49.400;8.670;2022-07-09T14:32:22;1.05;;;0.77;;
12650;SDS011;6390;49.400;8.670;2022-07-09T14:34:49;1.45;;;1.10;;
12650;SDS011;6390;49.400;8.670;2022-07-09T14:37:15;1.50;;;1.00;;
12650;SDS011;6390;49.400;8.670;2022-07-09T14:39:41;1.00;;;0.80;;
12650;SDS011;6390;49.400;8.670;2022-07-09T14:42:07;1.95;;;0.90;;
12650;SDS011;6390;49.400;8.670;2022-07-09T14:44:33;2.08;;;1.23;;
12650;SDS011;6390;49.400;8.670;2022-07-09T14:46:59;3.28;;;1.65;;
12650;SDS011;6390;49.400;8.670;2022-07-09T14:49:26;0.98;;;0.90;;
12650;SDS011;6390;49.400;8.670;2022-07-09T14:51:54;1.85;;;1.27;;
12650;SDS011;6390;49.400;8.670;2022-07-09T14:54:20;0.93;;;0.90;;
12650;SDS011;6390;49.400;8.670;2022-07-09T14:56:46;1.50;;;1.00;;
12650;SDS011;6390;49.400;8.670;2022-07-09T14:59:12;1.00;;;0.90;;
12650;SDS011;6390;49.400;8.670;2022-07-09T15:01:42;3.05;;;2.00;;
12650;SDS011;6390;49.400;8.670;2022-07-09T15:04:09;1.30;;;1.20;;
12650;SDS011;6390;49.400;8.670;2022-07-09T15:06:35;1.00;;;0.90;;
12650;SDS011;6390;49.400;8.670;2022-07-09T15:09:01;3.70;;;0.80;;
12650;SDS011;6390;49.400;8.670;2022-07-09T15:11:27;1.65;;;0.95;;
12650;SDS011;6390;49.400;8.670;2022-07-09T15:13:53;1.55;;;0.80;;
12650;SDS011;6390;49.400;8.670;2022-07-09T15:16:19;0.80;;;0.80;;
12650;SDS011;6390;49.400;8.670;2022-07-09T15:18:45;0.93;;;0.80;;
12650;SDS011;6390;49.400;8.670;2022-07-09T15:21:12;0.80;;;0.80;;